Terminal Aerodrome Forecast
Issued by NWS

Home | Current Version | Previous Version | Text Only | Print | Product List | Glossary On
Versions: 1 2 3 4 5 6 7 8 9 10 11 12 13 14
000
FTUS43 KMPX 052340
TAFRWF
TAF
KRWF 052340Z 0600/0624 17013G20KT P6SM BKN040 BKN150
     FM060200 16012KT P6SM SCT050 BKN150
     FM060500 15012KT 5SM -SHRA OVC040
      TEMPO 0606/0610 2SM TSRA BKN012CB OVC025
     FM061000 15008KT 3SM SHRA BR VCTS BKN012CB OVC020
     FM061600 17008KT 6SM -SHRA SCT010 OVC020
     FM061900 33013G20KT P6SM SCT025 BKN040=

USA.gov is the U.S. government's official web portal to all federal, state and local government web resources and services.